sensor_id;sensor_type;location;lat;lon;timestamp;temperature;humidity
37996;DHT22;23808;50.634;6.948;2022-07-09T00:03:26;18.40;99.90
37996;DHT22;23808;50.634;6.948;2022-07-09T00:07:27;18.40;99.80
37996;DHT22;23808;50.634;6.948;2022-07-09T00:11:27;18.40;99.60
37996;DHT22;23808;50.634;6.948;2022-07-09T00:15:28;18.40;99.60
37996;DHT22;23808;50.634;6.948;2022-07-09T00:19:29;18.50;99.80
37996;DHT22;23808;50.634;6.948;2022-07-09T00:23:29;18.40;99.90
37996;DHT22;23808;50.634;6.948;2022-07-09T00:27:30;18.30;99.90
37996;DHT22;23808;50.634;6.948;2022-07-09T00:31:30;18.20;99.90
37996;DHT22;23808;50.634;6.948;2022-07-09T00:35:31;18.00;99.90
37996;DHT22;23808;50.634;6.948;2022-07-09T00:39:32;17.90;99.90
37996;DHT22;23808;50.634;6.948;2022-07-09T00:43:32;17.80;99.90
37996;DHT22;23808;50.634;6.948;2022-07-09T00:47:33;17.60;99.90
37996;DHT22;23808;50.634;6.948;2022-07-09T00:51:33;17.50;99.90
37996;DHT22;23808;50.634;6.948;2022-07-09T00:55:36;17.40;99.90
37996;DHT22;23808;50.634;6.948;2022-07-09T00:59:38;17.30;99.90
37996;DHT22;23808;50.634;6.948;2022-07-09T01:03:38;17.20;99.90
37996;DHT22;23808;50.634;6.948;2022-07-09T01:07:39;17.20;99.90
37996;DHT22;23808;50.634;6.948;2022-07-09T01:11:40;17.10;99.90
37996;DHT22;23808;50.634;6.948;2022-07-09T01:15:41;17.00;99.90
37996;DHT22;23808;50.634;6.948;2022-07-09T01:19:41;16.90;99.90
37996;DHT22;23808;50.634;6.948;2022-07-09T01:23:42;16.80;99.90
37996;DHT22;23808;50.634;6.948;2022-07-09T01:27:43;16.80;99.90
37996;DHT22;23808;50.634;6.948;2022-07-09T01:31:43;16.70;99.90
37996;DHT22;23808;50.634;6.948;2022-07-09T01:35:44;16.70;99.90
37996;DHT22;23808;50.634;6.948;2022-07-09T01:39:45;16.60;99.90
37996;DHT22;23808;50.634;6.948;2022-07-09T01:43:51;16.50;99.90
37996;DHT22;23808;50.634;6.948;2022-07-09T01:47:52;16.50;99.90
37996;DHT22;23808;50.634;6.948;2022-07-09T01:51:52;16.40;99.90
37996;DHT22;23808;50.634;6.948;2022-07-09T01:55:53;16.40;99.90
37996;DHT22;23808;50.634;6.948;2022-07-09T01:59:54;16.30;99.90
37996;DHT22;23808;50.634;6.948;2022-07-09T02:03:54;16.30;99.90
37996;DHT22;23808;50.634;6.948;2022-07-09T02:07:55;16.20;99.90
37996;DHT22;23808;50.634;6.948;2022-07-09T02:11:55;16.20;99.90
37996;DHT22;23808;50.634;6.948;2022-07-09T02:15:56;16.20;99.90
37996;DHT22;23808;50.634;6.948;2022-07-09T02:19:57;16.10;99.90
37996;DHT22;23808;50.634;6.948;2022-07-09T02:23:58;16.10;99.90
37996;DHT22;23808;50.634;6.948;2022-07-09T02:27:59;16.10;99.90
37996;DHT22;23808;50.634;6.948;2022-07-09T02:31:59;16.00;99.90
37996;DHT22;23808;50.634;6.948;2022-07-09T02:36:00;16.00;99.90
37996;DHT22;23808;50.634;6.948;2022-07-09T02:40:00;16.00;99.90
37996;DHT22;23808;50.634;6.948;2022-07-09T02:44:01;16.00;99.90
37996;DHT22;23808;50.634;6.948;2022-07-09T02:48:02;15.90;99.90
37996;DHT22;23808;50.634;6.948;2022-07-09T02:52:03;15.90;99.90
37996;DHT22;23808;50.634;6.948;2022-07-09T02:56:04;15.90;99.90
37996;DHT22;23808;50.634;6.948;2022-07-09T03:00:05;15.80;99.90
37996;DHT22;23808;50.634;6.948;2022-07-09T03:04:06;15.80;99.90
37996;DHT22;23808;50.634;6.948;2022-07-09T03:08:07;15.70;99.90
37996;DHT22;23808;50.634;6.948;2022-07-09T03:12:09;15.70;99.90
37996;DHT22;23808;50.634;6.948;2022-07-09T03:16:09;15.70;99.90
37996;DHT22;23808;50.634;6.948;2022-07-09T03:20:11;15.60;99.90
37996;DHT22;23808;50.634;6.948;2022-07-09T03:24:11;15.60;99.90
37996;DHT22;23808;50.634;6.948;2022-07-09T03:28:12;15.60;99.90
37996;DHT22;23808;50.634;6.948;2022-07-09T03:32:13;15.60;99.90
37996;DHT22;23808;50.634;6.948;2022-07-09T03:36:14;15.60;99.90
37996;DHT22;23808;50.634;6.948;2022-07-09T03:40:15;15.60;99.90
37996;DHT22;23808;50.634;6.948;2022-07-09T03:44:16;15.70;99.90
37996;DHT22;23808;50.634;6.948;2022-07-09T03:48:16;15.80;99.90
37996;DHT22;23808;50.634;6.948;2022-07-09T03:52:17;15.90;99.90
37996;DHT22;23808;50.634;6.948;2022-07-09T03:56:18;16.00;99.90
37996;DHT22;23808;50.634;6.948;2022-07-09T04:00:20;16.10;99.90
37996;DHT22;23808;50.634;6.948;2022-07-09T04:04:21;16.20;99.90
37996;DHT22;23808;50.634;6.948;2022-07-09T04:08:21;16.30;99.90
37996;DHT22;23808;50.634;6.948;2022-07-09T04:12:22;16.40;99.90
37996;DHT22;23808;50.634;6.948;2022-07-09T04:16:22;16.50;99.90
37996;DHT22;23808;50.634;6.948;2022-07-09T04:20:23;16.60;99.90
37996;DHT22;23808;50.634;6.948;2022-07-09T04:24:25;16.80;99.90
37996;DHT22;23808;50.634;6.948;2022-07-09T04:28:26;16.90;99.90
37996;DHT22;23808;50.634;6.948;2022-07-09T04:32:27;17.20;99.90
37996;DHT22;23808;50.634;6.948;2022-07-09T04:36:27;17.40;99.90
37996;DHT22;23808;50.634;6.948;2022-07-09T04:40:28;17.60;99.90
37996;DHT22;23808;50.634;6.948;2022-07-09T04:44:29;17.80;99.90
37996;DHT22;23808;50.634;6.948;2022-07-09T04:48:30;18.00;99.90
37996;DHT22;23808;50.634;6.948;2022-07-09T04:52:30;18.20;99.90
37996;DHT22;23808;50.634;6.948;2022-07-09T04:56:31;18.30;99.90
37996;DHT22;23808;50.634;6.948;2022-07-09T05:00:32;18.50;99.90
37996;DHT22;23808;50.634;6.948;2022-07-09T05:04:33;18.60;99.90
37996;DHT22;23808;50.634;6.948;2022-07-09T05:08:34;18.70;99.90
37996;DHT22;23808;50.634;6.948;2022-07-09T05:12:35;18.80;99.90
37996;DHT22;23808;50.634;6.948;2022-07-09T05:16:36;18.90;99.90
37996;DHT22;23808;50.634;6.948;2022-07-09T05:20:37;19.00;99.90
37996;DHT22;23808;50.634;6.948;2022-07-09T05:24:40;19.10;99.90
37996;DHT22;23808;50.634;6.948;2022-07-09T05:28:41;19.20;99.90
37996;DHT22;23808;50.634;6.948;2022-07-09T05:32:43;19.30;99.90
37996;DHT22;23808;50.634;6.948;2022-07-09T05:36:44;19.50;99.90
37996;DHT22;23808;50.634;6.948;2022-07-09T05:40:45;19.60;99.90
37996;DHT22;23808;50.634;6.948;2022-07-09T05:44:45;19.70;99.90
37996;DHT22;23808;50.634;6.948;2022-07-09T05:48:46;19.80;99.90
37996;DHT22;23808;50.634;6.948;2022-07-09T05:52:47;19.90;99.90
37996;DHT22;23808;50.634;6.948;2022-07-09T05:56:48;20.00;99.90
37996;DHT22;23808;50.634;6.948;2022-07-09T06:00:48;20.10;99.90
37996;DHT22;23808;50.634;6.948;2022-07-09T06:04:49;20.20;99.90
37996;DHT22;23808;50.634;6.948;2022-07-09T06:08:50;20.30;99.90
37996;DHT22;23808;50.634;6.948;2022-07-09T06:12:51;20.50;99.50
37996;DHT22;23808;50.634;6.948;2022-07-09T06:16:51;20.50;99.00
37996;DHT22;23808;50.634;6.948;2022-07-09T06:20:52;20.60;98.70
37996;DHT22;23808;50.634;6.948;2022-07-09T06:24:53;20.80;98.40
37996;DHT22;23808;50.634;6.948;2022-07-09T06:28:53;20.90;97.90
37996;DHT22;23808;50.634;6.948;2022-07-09T06:32:54;21.00;97.70
37996;DHT22;23808;50.634;6.948;2022-07-09T06:36:55;21.20;97.90
37996;DHT22;23808;50.634;6.948;2022-07-09T06:40:55;21.40;97.70
37996;DHT22;23808;50.634;6.948;2022-07-09T06:44:56;21.40;97.30
37996;DHT22;23808;50.634;6.948;2022-07-09T06:48:57;21.50;97.50
37996;DHT22;23808;50.634;6.948;2022-07-09T06:52:57;21.50;97.30
37996;DHT22;23808;50.634;6.948;2022-07-09T06:56:58;21.80;97.10
37996;DHT22;23808;50.634;6.948;2022-07-09T07:00:58;22.20;96.70
37996;DHT22;23808;50.634;6.948;2022-07-09T07:04:59;22.50;96.30
37996;DHT22;23808;50.634;6.948;2022-07-09T07:09:00;22.50;96.40
37996;DHT22;23808;50.634;6.948;2022-07-09T07:13:00;22.50;96.50
37996;DHT22;23808;50.634;6.948;2022-07-09T07:17:01;22.40;96.60
37996;DHT22;23808;50.634;6.948;2022-07-09T07:21:01;22.50;96.90
37996;DHT22;23808;50.634;6.948;2022-07-09T07:25:02;22.80;96.50
37996;DHT22;23808;50.634;6.948;2022-07-09T07:29:03;23.30;96.20
37996;DHT22;23808;50.634;6.948;2022-07-09T07:33:03;23.80;96.00
37996;DHT22;23808;50.634;6.948;2022-07-09T07:37:04;24.30;95.50
37996;DHT22;23808;50.634;6.948;2022-07-09T07:41:05;24.80;94.60
37996;DHT22;23808;50.634;6.948;2022-07-09T07:45:06;25.00;93.40
37996;DHT22;23808;50.634;6.948;2022-07-09T07:49:06;24.80;93.20
37996;DHT22;23808;50.634;6.948;2022-07-09T07:53:08;24.50;93.60
37996;DHT22;23808;50.634;6.948;2022-07-09T07:57:08;24.40;93.60
37996;DHT22;23808;50.634;6.948;2022-07-09T08:01:09;24.60;93.50
37996;DHT22;23808;50.634;6.948;2022-07-09T08:05:10;24.90;92.80
37996;DHT22;23808;50.634;6.948;2022-07-09T08:09:10;24.80;92.30
37996;DHT22;23808;50.634;6.948;2022-07-09T08:13:11;24.80;92.70
37996;DHT22;23808;50.634;6.948;2022-07-09T08:17:12;24.90;92.50
37996;DHT22;23808;50.634;6.948;2022-07-09T08:21:13;25.20;92.10
37996;DHT22;23808;50.634;6.948;2022-07-09T08:25:14;25.30;91.60
37996;DHT22;23808;50.634;6.948;2022-07-09T08:29:15;25.60;91.40
37996;DHT22;23808;50.634;6.948;2022-07-09T08:33:15;25.60;91.00
37996;DHT22;23808;50.634;6.948;2022-07-09T08:37:16;25.60;91.20
37996;DHT22;23808;50.634;6.948;2022-07-09T08:41:18;25.60;90.50
37996;DHT22;23808;50.634;6.948;2022-07-09T08:45:20;25.40;90.90
37996;DHT22;23808;50.634;6.948;2022-07-09T08:49:23;25.50;90.20
37996;DHT22;23808;50.634;6.948;2022-07-09T08:53:25;25.30;90.60
37996;DHT22;23808;50.634;6.948;2022-07-09T08:57:28;25.40;89.80
37996;DHT22;23808;50.634;6.948;2022-07-09T09:01:28;25.60;90.10
37996;DHT22;23808;50.634;6.948;2022-07-09T09:05:29;26.00;89.30
37996;DHT22;23808;50.634;6.948;2022-07-09T09:09:34;26.30;88.40
37996;DHT22;23808;50.634;6.948;2022-07-09T09:13:46;26.30;87.30
37996;DHT22;23808;50.634;6.948;2022-07-09T09:17:47;26.20;87.40
37996;DHT22;23808;50.634;6.948;2022-07-09T09:21:51;26.20;87.30
37996;DHT22;23808;50.634;6.948;2022-07-09T09:25:53;26.60;86.10
37996;DHT22;23808;50.634;6.948;2022-07-09T09:29:57;26.90;84.80
37996;DHT22;23808;50.634;6.948;2022-07-09T09:38:09;27.40;82.70
37996;DHT22;23808;50.634;6.948;2022-07-09T09:42:11;27.50;82.70
37996;DHT22;23808;50.634;6.948;2022-07-09T09:46:14;27.50;82.00
37996;DHT22;23808;50.634;6.948;2022-07-09T09:50:19;27.30;82.10
37996;DHT22;23808;50.634;6.948;2022-07-09T09:54:21;27.30;82.60
37996;DHT22;23808;50.634;6.948;2022-07-09T09:58:21;27.50;83.10
37996;DHT22;23808;50.634;6.948;2022-07-09T10:02:23;27.80;80.60
37996;DHT22;23808;50.634;6.948;2022-07-09T10:06:25;28.00;79.60
37996;DHT22;23808;50.634;6.948;2022-07-09T10:10:27;28.20;79.70
37996;DHT22;23808;50.634;6.948;2022-07-09T10:14:31;28.40;79.20
37996;DHT22;23808;50.634;6.948;2022-07-09T10:18:33;28.80;77.90
37996;DHT22;23808;50.634;6.948;2022-07-09T10:22:41;29.30;76.60
37996;DHT22;23808;50.634;6.948;2022-07-09T10:30:44;29.70;75.10
37996;DHT22;23808;50.634;6.948;2022-07-09T10:34:57;30.00;74.40
37996;DHT22;23808;50.634;6.948;2022-07-09T10:38:58;30.30;73.70
37996;DHT22;23808;50.634;6.948;2022-07-09T10:43:01;30.20;72.60
37996;DHT22;23808;50.634;6.948;2022-07-09T10:47:03;30.10;71.90
37996;DHT22;23808;50.634;6.948;2022-07-09T10:51:04;30.10;72.50
37996;DHT22;23808;50.634;6.948;2022-07-09T10:55:05;30.40;71.70
37996;DHT22;23808;50.634;6.948;2022-07-09T10:59:06;30.30;68.80
37996;DHT22;23808;50.634;6.948;2022-07-09T11:03:06;30.00;68.70
37996;DHT22;23808;50.634;6.948;2022-07-09T11:07:07;30.10;68.20
37996;DHT22;23808;50.634;6.948;2022-07-09T11:11:08;30.30;68.60
37996;DHT22;23808;50.634;6.948;2022-07-09T11:15:16;30.60;67.20
37996;DHT22;23808;50.634;6.948;2022-07-09T11:19:18;30.40;67.50
37996;DHT22;23808;50.634;6.948;2022-07-09T11:23:19;30.10;68.60
37996;DHT22;23808;50.634;6.948;2022-07-09T11:27:20;30.10;68.70
37996;DHT22;23808;50.634;6.948;2022-07-09T11:31:21;30.30;67.70
37996;DHT22;23808;50.634;6.948;2022-07-09T11:35:30;30.90;68.50
37996;DHT22;23808;50.634;6.948;2022-07-09T11:39:32;31.00;66.80
37996;DHT22;23808;50.634;6.948;2022-07-09T11:43:34;30.50;67.00
37996;DHT22;23808;50.634;6.948;2022-07-09T11:47:39;29.80;68.10
37996;DHT22;23808;50.634;6.948;2022-07-09T11:51:39;30.20;67.50
37996;DHT22;23808;50.634;6.948;2022-07-09T11:55:40;30.40;67.60
37996;DHT22;23808;50.634;6.948;2022-07-09T11:59:41;30.80;65.50
37996;DHT22;23808;50.634;6.948;2022-07-09T12:03:47;30.80;65.40
37996;DHT22;23808;50.634;6.948;2022-07-09T12:07:51;30.30;65.20
37996;DHT22;23808;50.634;6.948;2022-07-09T12:11:52;29.60;65.80
37996;DHT22;23808;50.634;6.948;2022-07-09T12:15:53;29.20;66.70
37996;DHT22;23808;50.634;6.948;2022-07-09T12:19:55;28.70;67.60
37996;DHT22;23808;50.634;6.948;2022-07-09T12:23:56;28.10;68.30
37996;DHT22;23808;50.634;6.948;2022-07-09T12:27:57;27.70;68.70
37996;DHT22;23808;50.634;6.948;2022-07-09T12:31:57;27.60;69.30
37996;DHT22;23808;50.634;6.948;2022-07-09T12:35:58;27.60;69.90
37996;DHT22;23808;50.634;6.948;2022-07-09T12:39:58;27.50;70.20
37996;DHT22;23808;50.634;6.948;2022-07-09T12:43:59;27.40;69.70
37996;DHT22;23808;50.634;6.948;2022-07-09T12:48:00;27.40;70.80
37996;DHT22;23808;50.634;6.948;2022-07-09T12:52:00;27.50;70.80
37996;DHT22;23808;50.634;6.948;2022-07-09T12:56:01;27.80;70.60
37996;DHT22;23808;50.634;6.948;2022-07-09T13:00:02;27.90;70.70
37996;DHT22;23808;50.634;6.948;2022-07-09T13:04:03;28.00;70.30
37996;DHT22;23808;50.634;6.948;2022-07-09T13:08:04;28.80;71.10
37996;DHT22;23808;50.634;6.948;2022-07-09T13:12:05;29.60;68.70
37996;DHT22;23808;50.634;6.948;2022-07-09T13:16:06;30.00;68.40
37996;DHT22;23808;50.634;6.948;2022-07-09T13:20:07;30.20;68.00
37996;DHT22;23808;50.634;6.948;2022-07-09T13:24:08;30.20;67.90
37996;DHT22;23808;50.634;6.948;2022-07-09T13:28:09;30.30;68.50
37996;DHT22;23808;50.634;6.948;2022-07-09T13:32:09;30.60;67.00
37996;DHT22;23808;50.634;6.948;2022-07-09T13:36:10;30.90;66.10
37996;DHT22;23808;50.634;6.948;2022-07-09T13:40:11;30.50;65.70
37996;DHT22;23808;50.634;6.948;2022-07-09T13:44:11;29.50;67.10
37996;DHT22;23808;50.634;6.948;2022-07-09T13:48:12;28.60;68.40
37996;DHT22;23808;50.634;6.948;2022-07-09T13:52:13;27.90;71.40
37996;DHT22;23808;50.634;6.948;2022-07-09T13:56:13;27.20;71.90
37996;DHT22;23808;50.634;6.948;2022-07-09T14:00:14;26.50;71.90
37996;DHT22;23808;50.634;6.948;2022-07-09T14:04:15;26.10;72.90
37996;DHT22;23808;50.634;6.948;2022-07-09T14:08:15;25.80;76.50
37996;DHT22;23808;50.634;6.948;2022-07-09T14:12:16;24.90;86.90
37996;DHT22;23808;50.634;6.948;2022-07-09T14:16:17;23.50;91.90
37996;DHT22;23808;50.634;6.948;2022-07-09T14:20:17;22.40;95.40
37996;DHT22;23808;50.634;6.948;2022-07-09T14:24:19;21.70;98.90
37996;DHT22;23808;50.634;6.948;2022-07-09T14:28:20;21.40;99.90
37996;DHT22;23808;50.634;6.948;2022-07-09T14:32:20;21.30;99.90
37996;DHT22;23808;50.634;6.948;2022-07-09T14:36:21;21.10;99.90
37996;DHT22;23808;50.634;6.948;2022-07-09T14:40:22;21.10;99.90
37996;DHT22;23808;50.634;6.948;2022-07-09T14:44:22;21.10;99.90
37996;DHT22;23808;50.634;6.948;2022-07-09T14:48:23;21.10;99.90
37996;DHT22;23808;50.634;6.948;2022-07-09T14:52:24;21.00;99.90
37996;DHT22;23808;50.634;6.948;2022-07-09T14:56:24;21.00;99.90
37996;DHT22;23808;50.634;6.948;2022-07-09T15:00:25;21.10;99.90
37996;DHT22;23808;50.634;6.948;2022-07-09T15:04:26;21.60;99.90
37996;DHT22;23808;50.634;6.948;2022-07-09T15:08:26;22.40;99.90
37996;DHT22;23808;50.634;6.948;2022-07-09T15:12:27;23.10;99.90
37996;DHT22;23808;50.634;6.948;2022-07-09T15:16:27;23.40;99.90
37996;DHT22;23808;50.634;6.948;2022-07-09T15:20:28;23.80;99.90
37996;DHT22;23808;50.634;6.948;2022-07-09T15:24:29;24.10;99.90
37996;DHT22;23808;50.634;6.948;2022-07-09T15:28:29;24.10;99.90
37996;DHT22;23808;50.634;6.948;2022-07-09T15:32:30;24.10;99.90
37996;DHT22;23808;50.634;6.948;2022-07-09T15:36:31;24.00;99.90
37996;DHT22;23808;50.634;6.948;2022-07-09T15:40:33;23.90;99.90
37996;DHT22;23808;50.634;6.948;2022-07-09T15:44:33;23.80;99.80
37996;DHT22;23808;50.634;6.948;2022-07-09T15:48:34;23.80;99.30
37996;DHT22;23808;50.634;6.948;2022-07-09T15:52:36;23.90;97.80
37996;DHT22;23808;50.634;6.948;2022-07-09T15:56:42;23.90;96.80
37996;DHT22;23808;50.634;6.948;2022-07-09T16:00:43;23.90;96.40
37996;DHT22;23808;50.634;6.948;2022-07-09T16:04:44;23.90;95.20
37996;DHT22;23808;50.634;6.948;2022-07-09T16:08:44;24.00;94.80
37996;DHT22;23808;50.634;6.948;2022-07-09T16:12:45;24.00;95.10
37996;DHT22;23808;50.634;6.948;2022-07-09T16:16:52;24.40;94.40
37996;DHT22;23808;50.634;6.948;2022-07-09T16:20:53;24.60;93.70
37996;DHT22;23808;50.634;6.948;2022-07-09T16:24:54;24.60;92.90
37996;DHT22;23808;50.634;6.948;2022-07-09T16:28:54;24.50;93.20
37996;DHT22;23808;50.634;6.948;2022-07-09T16:32:55;24.40;92.80
37996;DHT22;23808;50.634;6.948;2022-07-09T16:36:56;24.30;92.30
37996;DHT22;23808;50.634;6.948;2022-07-09T16:40:56;24.20;91.90
37996;DHT22;23808;50.634;6.948;2022-07-09T16:44:57;24.30;91.90
37996;DHT22;23808;50.634;6.948;2022-07-09T16:48:57;24.60;91.10
37996;DHT22;23808;50.634;6.948;2022-07-09T16:52:58;24.70;89.20
37996;DHT22;23808;50.634;6.948;2022-07-09T16:56:59;24.80;89.30
37996;DHT22;23808;50.634;6.948;2022-07-09T17:01:03;24.80;88.60
37996;DHT22;23808;50.634;6.948;2022-07-09T17:05:04;24.80;88.40
37996;DHT22;23808;50.634;6.948;2022-07-09T17:09:05;24.90;87.40
37996;DHT22;23808;50.634;6.948;2022-07-09T17:13:06;25.00;86.20
37996;DHT22;23808;50.634;6.948;2022-07-09T17:17:07;24.80;86.00
37996;DHT22;23808;50.634;6.948;2022-07-09T17:21:08;24.50;86.50
37996;DHT22;23808;50.634;6.948;2022-07-09T17:25:09;24.30;86.70
37996;DHT22;23808;50.634;6.948;2022-07-09T17:29:10;24.30;86.30
37996;DHT22;23808;50.634;6.948;2022-07-09T17:33:10;24.20;86.60
37996;DHT22;23808;50.634;6.948;2022-07-09T17:37:11;24.00;86.70
37996;DHT22;23808;50.634;6.948;2022-07-09T17:41:11;24.10;85.80
37996;DHT22;23808;50.634;6.948;2022-07-09T17:45:12;24.30;83.80
37996;DHT22;23808;50.634;6.948;2022-07-09T17:49:12;24.30;83.10
37996;DHT22;23808;50.634;6.948;2022-07-09T17:53:13;24.30;82.50
37996;DHT22;23808;50.634;6.948;2022-07-09T17:57:15;24.30;82.30
37996;DHT22;23808;50.634;6.948;2022-07-09T18:01:16;24.40;80.40
37996;DHT22;23808;50.634;6.948;2022-07-09T18:05:17;24.30;80.70
37996;DHT22;23808;50.634;6.948;2022-07-09T18:09:18;24.30;80.20
37996;DHT22;23808;50.634;6.948;2022-07-09T18:13:18;24.20;79.90
37996;DHT22;23808;50.634;6.948;2022-07-09T18:17:19;24.00;80.10
37996;DHT22;23808;50.634;6.948;2022-07-09T18:21:20;23.80;79.90
37996;DHT22;23808;50.634;6.948;2022-07-09T18:25:21;23.70;80.40
37996;DHT22;23808;50.634;6.948;2022-07-09T18:29:22;23.40;81.40
37996;DHT22;23808;50.634;6.948;2022-07-09T18:33:23;23.30;81.70
37996;DHT22;23808;50.634;6.948;2022-07-09T18:37:25;23.10;82.00
37996;DHT22;23808;50.634;6.948;2022-07-09T18:41:26;23.00;82.00
37996;DHT22;23808;50.634;6.948;2022-07-09T18:45:26;22.80;82.00
37996;DHT22;23808;50.634;6.948;2022-07-09T18:49:27;22.60;82.20
37996;DHT22;23808;50.634;6.948;2022-07-09T18:53:27;22.50;82.20
37996;DHT22;23808;50.634;6.948;2022-07-09T18:57:28;22.40;82.40
37996;DHT22;23808;50.634;6.948;2022-07-09T19:01:32;22.40;82.90
37996;DHT22;23808;50.634;6.948;2022-07-09T19:05:33;22.30;83.40
37996;DHT22;23808;50.634;6.948;2022-07-09T19:09:34;22.10;83.40
37996;DHT22;23808;50.634;6.948;2022-07-09T19:13:34;22.00;83.80
37996;DHT22;23808;50.634;6.948;2022-07-09T19:17:35;21.80;84.30
37996;DHT22;23808;50.634;6.948;2022-07-09T19:21:36;21.70;84.80
37996;DHT22;23808;50.634;6.948;2022-07-09T19:25:37;21.60;85.10
37996;DHT22;23808;50.634;6.948;2022-07-09T19:29:37;21.40;85.80
37996;DHT22;23808;50.634;6.948;2022-07-09T19:33:38;21.20;86.10
37996;DHT22;23808;50.634;6.948;2022-07-09T19:37:57;21.10;86.70
37996;DHT22;23808;50.634;6.948;2022-07-09T19:41:58;20.90;87.20
37996;DHT22;23808;50.634;6.948;2022-07-09T19:45:58;20.70;87.50
37996;DHT22;23808;50.634;6.948;2022-07-09T19:49:59;20.50;88.10
37996;DHT22;23808;50.634;6.948;2022-07-09T19:54:00;20.30;88.30
37996;DHT22;23808;50.634;6.948;2022-07-09T19:58:01;20.20;88.70
37996;DHT22;23808;50.634;6.948;2022-07-09T20:02:02;20.10;89.30
37996;DHT22;23808;50.634;6.948;2022-07-09T20:06:03;20.00;90.10
37996;DHT22;23808;50.634;6.948;2022-07-09T20:10:04;20.00;90.40
37996;DHT22;23808;50.634;6.948;2022-07-09T20:14:04;19.90;90.80
37996;DHT22;23808;50.634;6.948;2022-07-09T20:18:05;19.80;91.20
37996;DHT22;23808;50.634;6.948;2022-07-09T20:22:06;19.70;91.60
37996;DHT22;23808;50.634;6.948;2022-07-09T20:26:07;19.70;91.90
37996;DHT22;23808;50.634;6.948;2022-07-09T20:30:08;19.70;92.10
37996;DHT22;23808;50.634;6.948;2022-07-09T20:34:08;19.70;92.00
37996;DHT22;23808;50.634;6.948;2022-07-09T20:38:10;19.70;92.10
37996;DHT22;23808;50.634;6.948;2022-07-09T20:42:10;19.60;92.10
37996;DHT22;23808;50.634;6.948;2022-07-09T20:46:11;19.50;92.30
37996;DHT22;23808;50.634;6.948;2022-07-09T20:50:11;19.50;92.30
37996;DHT22;23808;50.634;6.948;2022-07-09T20:54:12;19.40;92.30
37996;DHT22;23808;50.634;6.948;2022-07-09T20:58:13;19.30;92.50
37996;DHT22;23808;50.634;6.948;2022-07-09T21:02:14;19.20;92.60
37996;DHT22;23808;50.634;6.948;2022-07-09T21:06:14;19.10;92.80
37996;DHT22;23808;50.634;6.948;2022-07-09T21:10:15;19.00;93.00
37996;DHT22;23808;50.634;6.948;2022-07-09T21:14:16;18.90;93.20
37996;DHT22;23808;50.634;6.948;2022-07-09T21:18:16;18.80;93.30
37996;DHT22;23808;50.634;6.948;2022-07-09T21:22:35;18.60;93.50
37996;DHT22;23808;50.634;6.948;2022-07-09T21:26:36;18.60;93.70
37996;DHT22;23808;50.634;6.948;2022-07-09T21:30:37;18.40;94.00
37996;DHT22;23808;50.634;6.948;2022-07-09T21:34:37;18.40;94.20
37996;DHT22;23808;50.634;6.948;2022-07-09T21:38:38;18.30;94.40
37996;DHT22;23808;50.634;6.948;2022-07-09T21:42:39;18.20;94.70
37996;DHT22;23808;50.634;6.948;2022-07-09T21:46:40;18.10;94.80
37996;DHT22;23808;50.634;6.948;2022-07-09T21:50:40;18.10;94.90
37996;DHT22;23808;50.634;6.948;2022-07-09T21:54:41;18.10;95.30
37996;DHT22;23808;50.634;6.948;2022-07-09T21:58:41;18.00;95.20
37996;DHT22;23808;50.634;6.948;2022-07-09T22:02:42;18.00;95.30
37996;DHT22;23808;50.634;6.948;2022-07-09T22:06:43;17.90;95.40
37996;DHT22;23808;50.634;6.948;2022-07-09T22:10:43;17.80;95.50
37996;DHT22;23808;50.634;6.948;2022-07-09T22:14:44;17.80;95.50
37996;DHT22;23808;50.634;6.948;2022-07-09T22:18:45;17.80;95.50
37996;DHT22;23808;50.634;6.948;2022-07-09T22:22:45;17.70;95.50
37996;DHT22;23808;50.634;6.948;2022-07-09T22:26:46;17.70;95.30
37996;DHT22;23808;50.634;6.948;2022-07-09T22:30:47;17.60;95.20
37996;DHT22;23808;50.634;6.948;2022-07-09T22:34:47;17.60;95.10
37996;DHT22;23808;50.634;6.948;2022-07-09T22:38:48;17.60;94.80
37996;DHT22;23808;50.634;6.948;2022-07-09T22:42:49;17.50;94.80
37996;DHT22;23808;50.634;6.948;2022-07-09T22:46:49;17.50;94.80
37996;DHT22;23808;50.634;6.948;2022-07-09T22:50:50;17.60;94.80
37996;DHT22;23808;50.634;6.948;2022-07-09T22:54:50;17.50;94.80
37996;DHT22;23808;50.634;6.948;2022-07-09T22:58:53;17.50;95.00
37996;DHT22;23808;50.634;6.948;2022-07-09T23:02:54;17.50;95.30
37996;DHT22;23808;50.634;6.948;2022-07-09T23:06:55;17.50;95.50
37996;DHT22;23808;50.634;6.948;2022-07-09T23:10:55;17.50;95.70
37996;DHT22;23808;50.634;6.948;2022-07-09T23:14:56;17.40;95.70
37996;DHT22;23808;50.634;6.948;2022-07-09T23:19:07;17.30;95.00
37996;DHT22;23808;50.634;6.948;2022-07-09T23:23:08;17.20;95.10
37996;DHT22;23808;50.634;6.948;2022-07-09T23:27:09;17.00;95.10
37996;DHT22;23808;50.634;6.948;2022-07-09T23:31:09;17.00;95.10
37996;DHT22;23808;50.634;6.948;2022-07-09T23:35:10;16.80;95.30
37996;DHT22;23808;50.634;6.948;2022-07-09T23:39:10;16.60;95.50
37996;DHT22;23808;50.634;6.948;2022-07-09T23:43:11;16.50;95.70
37996;DHT22;23808;50.634;6.948;2022-07-09T23:47:12;16.30;95.90
37996;DHT22;23808;50.634;6.948;2022-07-09T23:51:12;16.20;96.10
37996;DHT22;23808;50.634;6.948;2022-07-09T23:55:14;16.10;96.20
37996;DHT22;23808;50.634;6.948;2022-07-09T23:59:15;16.00;96.40
